sensor_id;sensor_type;location;lat;lon;timestamp;temperature;humidity
4556;DHT22;2290;48.674;9.018;2023-07-29T00:01:42;17.90;99.90
4556;DHT22;2290;48.674;9.018;2023-07-29T00:04:08;18.00;99.90
4556;DHT22;2290;48.674;9.018;2023-07-29T00:06:37;18.00;99.90
4556;DHT22;2290;48.674;9.018;2023-07-29T00:09:02;18.00;99.90
4556;DHT22;2290;48.674;9.018;2023-07-29T00:11:28;18.00;99.90
4556;DHT22;2290;48.674;9.018;2023-07-29T00:13:54;17.90;99.90
4556;DHT22;2290;48.674;9.018;2023-07-29T00:16:19;18.00;99.90
4556;DHT22;2290;48.674;9.018;2023-07-29T00:18:48;18.00;99.90
4556;DHT22;2290;48.674;9.018;2023-07-29T00:21:14;17.90;99.90
4556;DHT22;2290;48.674;9.018;2023-07-29T00:23:40;18.00;99.90
4556;DHT22;2290;48.674;9.018;2023-07-29T00:26:05;18.00;99.90
4556;DHT22;2290;48.674;9.018;2023-07-29T00:28:31;17.90;99.90
4556;DHT22;2290;48.674;9.018;2023-07-29T00:30:57;17.90;99.90
4556;DHT22;2290;48.674;9.018;2023-07-29T00:33:22;18.00;99.90
4556;DHT22;2290;48.674;9.018;2023-07-29T00:35:48;17.90;99.90
4556;DHT22;2290;48.674;9.018;2023-07-29T00:38:14;18.00;99.90
4556;DHT22;2290;48.674;9.018;2023-07-29T00:40:39;18.00;99.90
4556;DHT22;2290;48.674;9.018;2023-07-29T00:43:05;17.90;99.90
4556;DHT22;2290;48.674;9.018;2023-07-29T00:45:32;17.90;99.90
4556;DHT22;2290;48.674;9.018;2023-07-29T00:47:58;18.00;99.90
4556;DHT22;2290;48.674;9.018;2023-07-29T00:50:24;18.00;99.90
4556;DHT22;2290;48.674;9.018;2023-07-29T00:52:50;18.00;99.90
4556;DHT22;2290;48.674;9.018;2023-07-29T00:55:16;18.00;99.90
4556;DHT22;2290;48.674;9.018;2023-07-29T00:57:42;17.90;99.90
4556;DHT22;2290;48.674;9.018;2023-07-29T01:00:08;17.90;99.90
4556;DHT22;2290;48.674;9.018;2023-07-29T01:02:35;17.90;99.90
4556;DHT22;2290;48.674;9.018;2023-07-29T01:05:00;17.90;99.90
4556;DHT22;2290;48.674;9.018;2023-07-29T01:10:46;17.80;99.90
4556;DHT22;2290;48.674;9.018;2023-07-29T01:16:08;17.80;99.90
4556;DHT22;2290;48.674;9.018;2023-07-29T01:18:36;17.90;99.90
4556;DHT22;2290;48.674;9.018;2023-07-29T01:21:07;17.80;99.90
4556;DHT22;2290;48.674;9.018;2023-07-29T01:23:34;17.80;99.90
4556;DHT22;2290;48.674;9.018;2023-07-29T01:26:01;17.80;99.90
4556;DHT22;2290;48.674;9.018;2023-07-29T01:28:27;17.90;99.90
4556;DHT22;2290;48.674;9.018;2023-07-29T01:31:10;17.90;99.90
4556;DHT22;2290;48.674;9.018;2023-07-29T01:33:42;17.80;99.90
4556;DHT22;2290;48.674;9.018;2023-07-29T01:36:15;17.80;99.90
4556;DHT22;2290;48.674;9.018;2023-07-29T01:38:44;17.80;99.90
4556;DHT22;2290;48.674;9.018;2023-07-29T01:41:10;17.90;99.90
4556;DHT22;2290;48.674;9.018;2023-07-29T01:43:37;17.90;99.90
4556;DHT22;2290;48.674;9.018;2023-07-29T01:46:15;17.90;99.90
4556;DHT22;2290;48.674;9.018;2023-07-29T01:48:41;17.80;99.90
4556;DHT22;2290;48.674;9.018;2023-07-29T01:51:07;17.80;99.90
4556;DHT22;2290;48.674;9.018;2023-07-29T01:53:33;17.80;99.90
4556;DHT22;2290;48.674;9.018;2023-07-29T01:55:58;17.80;99.90
4556;DHT22;2290;48.674;9.018;2023-07-29T01:58:24;17.80;99.90
4556;DHT22;2290;48.674;9.018;2023-07-29T02:00:51;17.90;99.90
4556;DHT22;2290;48.674;9.018;2023-07-29T02:03:17;17.90;99.90
4556;DHT22;2290;48.674;9.018;2023-07-29T02:05:43;17.90;99.90
4556;DHT22;2290;48.674;9.018;2023-07-29T02:08:09;17.90;99.90
4556;DHT22;2290;48.674;9.018;2023-07-29T02:10:35;17.90;99.90
4556;DHT22;2290;48.674;9.018;2023-07-29T02:13:01;17.80;99.90
4556;DHT22;2290;48.674;9.018;2023-07-29T02:15:26;17.80;99.90
4556;DHT22;2290;48.674;9.018;2023-07-29T02:17:52;17.80;99.90
4556;DHT22;2290;48.674;9.018;2023-07-29T02:20:17;17.90;99.90
4556;DHT22;2290;48.674;9.018;2023-07-29T02:22:43;17.90;99.90
4556;DHT22;2290;48.674;9.018;2023-07-29T02:25:09;17.90;99.90
4556;DHT22;2290;48.674;9.018;2023-07-29T02:27:35;17.80;99.90
4556;DHT22;2290;48.674;9.018;2023-07-29T02:30:01;17.80;99.90
4556;DHT22;2290;48.674;9.018;2023-07-29T02:32:26;17.80;99.90
4556;DHT22;2290;48.674;9.018;2023-07-29T02:34:52;17.80;99.90
4556;DHT22;2290;48.674;9.018;2023-07-29T02:37:18;17.80;99.90
4556;DHT22;2290;48.674;9.018;2023-07-29T02:39:44;17.80;99.90
4556;DHT22;2290;48.674;9.018;2023-07-29T02:42:10;17.80;99.90
4556;DHT22;2290;48.674;9.018;2023-07-29T02:44:35;17.80;99.90
4556;DHT22;2290;48.674;9.018;2023-07-29T02:47:01;17.90;99.90
4556;DHT22;2290;48.674;9.018;2023-07-29T02:49:28;17.90;99.90
4556;DHT22;2290;48.674;9.018;2023-07-29T02:51:53;17.90;99.90
4556;DHT22;2290;48.674;9.018;2023-07-29T02:54:19;17.90;99.90
4556;DHT22;2290;48.674;9.018;2023-07-29T02:56:44;17.90;99.90
4556;DHT22;2290;48.674;9.018;2023-07-29T02:59:10;17.80;99.90
4556;DHT22;2290;48.674;9.018;2023-07-29T03:01:35;17.80;99.90
4556;DHT22;2290;48.674;9.018;2023-07-29T03:04:01;17.80;99.90
4556;DHT22;2290;48.674;9.018;2023-07-29T03:06:26;17.80;99.90
4556;DHT22;2290;48.674;9.018;2023-07-29T03:08:52;17.80;99.90
4556;DHT22;2290;48.674;9.018;2023-07-29T03:11:18;17.80;99.90
4556;DHT22;2290;48.674;9.018;2023-07-29T03:13:43;17.80;99.90
4556;DHT22;2290;48.674;9.018;2023-07-29T03:16:11;17.90;99.90
4556;DHT22;2290;48.674;9.018;2023-07-29T03:18:37;17.90;99.90
4556;DHT22;2290;48.674;9.018;2023-07-29T03:21:03;17.80;99.90
4556;DHT22;2290;48.674;9.018;2023-07-29T03:23:29;17.80;99.90
4556;DHT22;2290;48.674;9.018;2023-07-29T03:25:56;17.80;99.90
4556;DHT22;2290;48.674;9.018;2023-07-29T03:28:26;17.90;99.90
4556;DHT22;2290;48.674;9.018;2023-07-29T03:30:55;17.80;99.90
4556;DHT22;2290;48.674;9.018;2023-07-29T03:33:22;17.80;99.90
4556;DHT22;2290;48.674;9.018;2023-07-29T03:35:48;17.80;99.90
4556;DHT22;2290;48.674;9.018;2023-07-29T03:38:14;17.80;99.90
4556;DHT22;2290;48.674;9.018;2023-07-29T03:40:40;17.80;99.90
4556;DHT22;2290;48.674;9.018;2023-07-29T03:43:06;17.80;99.90
4556;DHT22;2290;48.674;9.018;2023-07-29T03:45:32;17.80;99.90
4556;DHT22;2290;48.674;9.018;2023-07-29T03:47:58;17.80;99.90
4556;DHT22;2290;48.674;9.018;2023-07-29T03:50:23;17.80;99.90
4556;DHT22;2290;48.674;9.018;2023-07-29T03:52:49;17.90;99.90
4556;DHT22;2290;48.674;9.018;2023-07-29T03:55:15;17.80;99.90
4556;DHT22;2290;48.674;9.018;2023-07-29T03:57:41;17.80;99.90
4556;DHT22;2290;48.674;9.018;2023-07-29T04:00:07;17.80;99.90
4556;DHT22;2290;48.674;9.018;2023-07-29T04:02:32;17.80;99.90
4556;DHT22;2290;48.674;9.018;2023-07-29T04:04:58;17.90;99.90
4556;DHT22;2290;48.674;9.018;2023-07-29T04:07:23;17.90;99.90
4556;DHT22;2290;48.674;9.018;2023-07-29T04:09:49;17.90;99.90
4556;DHT22;2290;48.674;9.018;2023-07-29T04:12:15;17.80;99.90
4556;DHT22;2290;48.674;9.018;2023-07-29T04:14:41;17.80;99.90
4556;DHT22;2290;48.674;9.018;2023-07-29T04:17:07;17.80;99.90
4556;DHT22;2290;48.674;9.018;2023-07-29T04:19:33;17.80;99.90
4556;DHT22;2290;48.674;9.018;2023-07-29T04:21:58;17.90;99.90
4556;DHT22;2290;48.674;9.018;2023-07-29T04:24:24;18.00;99.90
4556;DHT22;2290;48.674;9.018;2023-07-29T04:26:50;18.00;99.90
4556;DHT22;2290;48.674;9.018;2023-07-29T04:29:16;17.90;99.90
4556;DHT22;2290;48.674;9.018;2023-07-29T04:31:41;17.90;99.90
4556;DHT22;2290;48.674;9.018;2023-07-29T04:34:09;17.90;99.90
4556;DHT22;2290;48.674;9.018;2023-07-29T04:36:34;17.80;99.90
4556;DHT22;2290;48.674;9.018;2023-07-29T04:39:00;17.70;99.90
4556;DHT22;2290;48.674;9.018;2023-07-29T04:41:27;17.70;99.90
4556;DHT22;2290;48.674;9.018;2023-07-29T04:43:54;17.70;99.90
4556;DHT22;2290;48.674;9.018;2023-07-29T04:46:21;17.70;99.90
4556;DHT22;2290;48.674;9.018;2023-07-29T04:48:47;17.70;99.90
4556;DHT22;2290;48.674;9.018;2023-07-29T04:51:13;17.60;99.90
4556;DHT22;2290;48.674;9.018;2023-07-29T04:53:38;17.60;99.90
4556;DHT22;2290;48.674;9.018;2023-07-29T04:56:05;17.60;99.90
4556;DHT22;2290;48.674;9.018;2023-07-29T04:58:33;17.60;99.90
4556;DHT22;2290;48.674;9.018;2023-07-29T05:01:03;17.60;99.90
4556;DHT22;2290;48.674;9.018;2023-07-29T05:03:29;17.50;99.90
4556;DHT22;2290;48.674;9.018;2023-07-29T05:05:57;17.60;99.90
4556;DHT22;2290;48.674;9.018;2023-07-29T05:08:23;17.60;99.90
4556;DHT22;2290;48.674;9.018;2023-07-29T05:10:50;17.60;99.90
4556;DHT22;2290;48.674;9.018;2023-07-29T05:13:15;17.70;99.90
4556;DHT22;2290;48.674;9.018;2023-07-29T05:15:41;17.70;99.90
4556;DHT22;2290;48.674;9.018;2023-07-29T05:18:06;17.70;99.90
4556;DHT22;2290;48.674;9.018;2023-07-29T05:20:34;17.70;99.90
4556;DHT22;2290;48.674;9.018;2023-07-29T05:22:59;17.70;99.90
4556;DHT22;2290;48.674;9.018;2023-07-29T05:25:25;17.70;99.90
4556;DHT22;2290;48.674;9.018;2023-07-29T05:27:55;17.80;99.90
4556;DHT22;2290;48.674;9.018;2023-07-29T05:30:23;17.80;99.90
4556;DHT22;2290;48.674;9.018;2023-07-29T05:32:48;17.90;99.90
4556;DHT22;2290;48.674;9.018;2023-07-29T05:35:14;17.90;99.90
4556;DHT22;2290;48.674;9.018;2023-07-29T05:37:40;17.90;99.90
4556;DHT22;2290;48.674;9.018;2023-07-29T05:40:07;18.00;99.90
4556;DHT22;2290;48.674;9.018;2023-07-29T05:42:33;18.10;99.90
4556;DHT22;2290;48.674;9.018;2023-07-29T05:44:59;18.10;99.90
4556;DHT22;2290;48.674;9.018;2023-07-29T05:47:25;18.20;99.90
4556;DHT22;2290;48.674;9.018;2023-07-29T05:49:56;18.20;99.90
4556;DHT22;2290;48.674;9.018;2023-07-29T05:52:22;18.40;99.90
4556;DHT22;2290;48.674;9.018;2023-07-29T05:54:48;18.40;99.90
4556;DHT22;2290;48.674;9.018;2023-07-29T05:57:14;18.40;99.90
4556;DHT22;2290;48.674;9.018;2023-07-29T05:59:40;18.40;99.90
4556;DHT22;2290;48.674;9.018;2023-07-29T06:02:06;18.50;99.90
4556;DHT22;2290;48.674;9.018;2023-07-29T06:04:31;18.50;99.90
4556;DHT22;2290;48.674;9.018;2023-07-29T06:07:02;18.60;99.90
4556;DHT22;2290;48.674;9.018;2023-07-29T06:09:28;18.60;99.90
4556;DHT22;2290;48.674;9.018;2023-07-29T06:11:58;18.80;99.90
4556;DHT22;2290;48.674;9.018;2023-07-29T06:14:24;18.70;99.90
4556;DHT22;2290;48.674;9.018;2023-07-29T06:16:50;18.80;99.90
4556;DHT22;2290;48.674;9.018;2023-07-29T06:19:15;18.90;99.90
4556;DHT22;2290;48.674;9.018;2023-07-29T06:21:41;18.90;99.90
4556;DHT22;2290;48.674;9.018;2023-07-29T06:24:13;19.00;99.90
4556;DHT22;2290;48.674;9.018;2023-07-29T06:26:39;18.90;99.90
4556;DHT22;2290;48.674;9.018;2023-07-29T06:29:06;18.80;99.90
4556;DHT22;2290;48.674;9.018;2023-07-29T06:31:33;18.80;99.90
4556;DHT22;2290;48.674;9.018;2023-07-29T06:33:59;18.80;99.90
4556;DHT22;2290;48.674;9.018;2023-07-29T06:36:24;18.80;99.90
4556;DHT22;2290;48.674;9.018;2023-07-29T06:38:51;18.80;99.90
4556;DHT22;2290;48.674;9.018;2023-07-29T06:41:17;18.70;99.90
4556;DHT22;2290;48.674;9.018;2023-07-29T06:43:42;18.60;99.90
4556;DHT22;2290;48.674;9.018;2023-07-29T06:46:11;18.70;99.90
4556;DHT22;2290;48.674;9.018;2023-07-29T06:48:37;18.60;99.90
4556;DHT22;2290;48.674;9.018;2023-07-29T06:51:04;18.50;99.90
4556;DHT22;2290;48.674;9.018;2023-07-29T06:53:30;18.40;99.90
4556;DHT22;2290;48.674;9.018;2023-07-29T06:55:55;18.40;99.90
4556;DHT22;2290;48.674;9.018;2023-07-29T06:58:21;18.40;99.90
4556;DHT22;2290;48.674;9.018;2023-07-29T07:00:47;18.30;99.90
4556;DHT22;2290;48.674;9.018;2023-07-29T07:03:12;18.30;99.90
4556;DHT22;2290;48.674;9.018;2023-07-29T07:05:38;18.20;99.90
4556;DHT22;2290;48.674;9.018;2023-07-29T07:08:03;18.20;99.90
4556;DHT22;2290;48.674;9.018;2023-07-29T07:10:29;18.10;99.90
4556;DHT22;2290;48.674;9.018;2023-07-29T07:12:55;18.20;99.90
4556;DHT22;2290;48.674;9.018;2023-07-29T07:15:20;18.20;99.90
4556;DHT22;2290;48.674;9.018;2023-07-29T07:17:46;18.20;99.90
4556;DHT22;2290;48.674;9.018;2023-07-29T07:20:12;18.20;99.90
4556;DHT22;2290;48.674;9.018;2023-07-29T07:22:38;18.20;99.90
4556;DHT22;2290;48.674;9.018;2023-07-29T07:25:04;18.20;99.90
4556;DHT22;2290;48.674;9.018;2023-07-29T07:27:30;18.30;99.90
4556;DHT22;2290;48.674;9.018;2023-07-29T07:29:55;18.30;99.90
4556;DHT22;2290;48.674;9.018;2023-07-29T07:32:21;18.50;99.90
4556;DHT22;2290;48.674;9.018;2023-07-29T07:34:47;18.50;99.90
4556;DHT22;2290;48.674;9.018;2023-07-29T07:37:12;18.50;99.90
4556;DHT22;2290;48.674;9.018;2023-07-29T07:39:38;18.50;99.90
4556;DHT22;2290;48.674;9.018;2023-07-29T07:42:04;18.60;99.90
4556;DHT22;2290;48.674;9.018;2023-07-29T07:44:29;18.70;99.90
4556;DHT22;2290;48.674;9.018;2023-07-29T07:46:55;18.70;99.90
4556;DHT22;2290;48.674;9.018;2023-07-29T07:49:21;18.80;99.90
4556;DHT22;2290;48.674;9.018;2023-07-29T07:51:47;18.90;99.90
4556;DHT22;2290;48.674;9.018;2023-07-29T07:54:12;18.90;99.90
4556;DHT22;2290;48.674;9.018;2023-07-29T07:56:38;19.00;99.90
4556;DHT22;2290;48.674;9.018;2023-07-29T07:59:03;19.10;99.90
4556;DHT22;2290;48.674;9.018;2023-07-29T08:01:34;19.00;99.90
4556;DHT22;2290;48.674;9.018;2023-07-29T08:04:01;19.10;99.90
4556;DHT22;2290;48.674;9.018;2023-07-29T08:06:26;19.20;99.90
4556;DHT22;2290;48.674;9.018;2023-07-29T08:08:52;19.30;99.90
4556;DHT22;2290;48.674;9.018;2023-07-29T08:11:17;19.30;99.90
4556;DHT22;2290;48.674;9.018;2023-07-29T08:13:43;19.40;99.90
4556;DHT22;2290;48.674;9.018;2023-07-29T08:16:08;19.40;99.90
4556;DHT22;2290;48.674;9.018;2023-07-29T08:18:34;19.40;99.90
4556;DHT22;2290;48.674;9.018;2023-07-29T08:21:00;19.50;99.90
4556;DHT22;2290;48.674;9.018;2023-07-29T08:23:35;19.50;99.90
4556;DHT22;2290;48.674;9.018;2023-07-29T08:26:05;19.60;99.90
4556;DHT22;2290;48.674;9.018;2023-07-29T08:28:33;19.80;99.90
4556;DHT22;2290;48.674;9.018;2023-07-29T08:30:59;19.90;99.90
4556;DHT22;2290;48.674;9.018;2023-07-29T08:33:25;20.00;99.90
4556;DHT22;2290;48.674;9.018;2023-07-29T08:35:51;20.20;99.90
4556;DHT22;2290;48.674;9.018;2023-07-29T08:38:16;20.30;99.90
4556;DHT22;2290;48.674;9.018;2023-07-29T08:40:46;20.40;99.90
4556;DHT22;2290;48.674;9.018;2023-07-29T08:43:16;20.50;99.90
4556;DHT22;2290;48.674;9.018;2023-07-29T08:45:44;20.50;99.90
4556;DHT22;2290;48.674;9.018;2023-07-29T08:48:10;20.40;99.90
4556;DHT22;2290;48.674;9.018;2023-07-29T08:50:37;20.40;99.90
4556;DHT22;2290;48.674;9.018;2023-07-29T08:53:06;20.50;99.90
4556;DHT22;2290;48.674;9.018;2023-07-29T08:55:38;20.50;99.90
4556;DHT22;2290;48.674;9.018;2023-07-29T08:58:04;20.40;99.90
4556;DHT22;2290;48.674;9.018;2023-07-29T09:00:30;20.50;99.90
4556;DHT22;2290;48.674;9.018;2023-07-29T09:02:56;20.60;99.90
4556;DHT22;2290;48.674;9.018;2023-07-29T09:05:24;20.60;99.90
4556;DHT22;2290;48.674;9.018;2023-07-29T09:07:51;20.60;99.90
4556;DHT22;2290;48.674;9.018;2023-07-29T09:10:21;20.70;99.90
4556;DHT22;2290;48.674;9.018;2023-07-29T09:12:49;20.80;99.90
4556;DHT22;2290;48.674;9.018;2023-07-29T09:15:29;20.90;99.90
4556;DHT22;2290;48.674;9.018;2023-07-29T09:17:59;21.10;99.90
4556;DHT22;2290;48.674;9.018;2023-07-29T09:20:29;21.30;99.90
4556;DHT22;2290;48.674;9.018;2023-07-29T09:22:55;21.60;99.90
4556;DHT22;2290;48.674;9.018;2023-07-29T09:25:28;21.70;99.90
4556;DHT22;2290;48.674;9.018;2023-07-29T09:27:59;21.70;99.90
4556;DHT22;2290;48.674;9.018;2023-07-29T09:30:25;21.70;99.90
4556;DHT22;2290;48.674;9.018;2023-07-29T09:32:58;21.70;99.90
4556;DHT22;2290;48.674;9.018;2023-07-29T09:35:27;21.80;99.90
4556;DHT22;2290;48.674;9.018;2023-07-29T09:37:53;21.80;99.90
4556;DHT22;2290;48.674;9.018;2023-07-29T09:40:19;21.80;99.90
4556;DHT22;2290;48.674;9.018;2023-07-29T09:42:55;21.80;99.90
4556;DHT22;2290;48.674;9.018;2023-07-29T09:45:24;22.00;99.90
4556;DHT22;2290;48.674;9.018;2023-07-29T09:47:51;22.10;99.90
4556;DHT22;2290;48.674;9.018;2023-07-29T09:50:17;21.90;99.90
4556;DHT22;2290;48.674;9.018;2023-07-29T09:52:43;22.00;99.90
4556;DHT22;2290;48.674;9.018;2023-07-29T09:55:13;22.00;99.90
4556;DHT22;2290;48.674;9.018;2023-07-29T09:57:43;22.10;99.90
4556;DHT22;2290;48.674;9.018;2023-07-29T10:00:11;22.30;99.90
4556;DHT22;2290;48.674;9.018;2023-07-29T10:02:41;22.30;99.90
4556;DHT22;2290;48.674;9.018;2023-07-29T10:05:08;22.50;99.90
4556;DHT22;2290;48.674;9.018;2023-07-29T10:07:39;22.60;99.90
4556;DHT22;2290;48.674;9.018;2023-07-29T10:10:06;22.60;99.90
4556;DHT22;2290;48.674;9.018;2023-07-29T10:12:33;22.60;99.90
4556;DHT22;2290;48.674;9.018;2023-07-29T10:15:08;22.60;99.90
4556;DHT22;2290;48.674;9.018;2023-07-29T10:17:37;22.90;99.90
4556;DHT22;2290;48.674;9.018;2023-07-29T10:20:08;23.00;99.90
4556;DHT22;2290;48.674;9.018;2023-07-29T10:22:40;23.00;99.90
4556;DHT22;2290;48.674;9.018;2023-07-29T10:25:25;23.00;99.90
4556;DHT22;2290;48.674;9.018;2023-07-29T10:27:56;23.10;99.90
4556;DHT22;2290;48.674;9.018;2023-07-29T10:30:27;23.10;99.90
4556;DHT22;2290;48.674;9.018;2023-07-29T10:32:53;23.10;99.90
4556;DHT22;2290;48.674;9.018;2023-07-29T10:35:20;23.10;99.90
4556;DHT22;2290;48.674;9.018;2023-07-29T10:37:46;23.30;99.90
4556;DHT22;2290;48.674;9.018;2023-07-29T10:40:16;23.60;99.90
4556;DHT22;2290;48.674;9.018;2023-07-29T10:43:03;23.70;99.90
4556;DHT22;2290;48.674;9.018;2023-07-29T10:45:39;23.70;99.90
4556;DHT22;2290;48.674;9.018;2023-07-29T10:48:12;23.70;99.90
4556;DHT22;2290;48.674;9.018;2023-07-29T10:50:38;23.60;99.90
4556;DHT22;2290;48.674;9.018;2023-07-29T10:53:04;23.80;99.90
4556;DHT22;2290;48.674;9.018;2023-07-29T10:55:34;24.10;99.90
4556;DHT22;2290;48.674;9.018;2023-07-29T10:58:15;24.40;99.90
4556;DHT22;2290;48.674;9.018;2023-07-29T11:00:45;24.60;99.90
4556;DHT22;2290;48.674;9.018;2023-07-29T11:03:12;24.80;99.90
4556;DHT22;2290;48.674;9.018;2023-07-29T11:05:53;24.90;99.90
4556;DHT22;2290;48.674;9.018;2023-07-29T11:08:30;24.70;99.90
4556;DHT22;2290;48.674;9.018;2023-07-29T11:11:07;24.70;99.90
4556;DHT22;2290;48.674;9.018;2023-07-29T11:13:35;24.50;99.90
4556;DHT22;2290;48.674;9.018;2023-07-29T11:16:01;24.20;99.90
4556;DHT22;2290;48.674;9.018;2023-07-29T11:18:29;24.10;99.90
4556;DHT22;2290;48.674;9.018;2023-07-29T11:20:56;24.10;99.90
4556;DHT22;2290;48.674;9.018;2023-07-29T11:23:29;24.10;99.90
4556;DHT22;2290;48.674;9.018;2023-07-29T11:25:55;24.10;99.90
4556;DHT22;2290;48.674;9.018;2023-07-29T11:28:21;24.10;99.90
4556;DHT22;2290;48.674;9.018;2023-07-29T11:30:47;24.10;99.90
4556;DHT22;2290;48.674;9.018;2023-07-29T11:33:16;23.90;99.90
4556;DHT22;2290;48.674;9.018;2023-07-29T11:35:42;24.00;99.90
4556;DHT22;2290;48.674;9.018;2023-07-29T11:38:07;24.10;99.90
4556;DHT22;2290;48.674;9.018;2023-07-29T11:40:33;24.10;99.90
4556;DHT22;2290;48.674;9.018;2023-07-29T11:42:59;24.10;99.90
4556;DHT22;2290;48.674;9.018;2023-07-29T11:45:24;24.00;99.90
4556;DHT22;2290;48.674;9.018;2023-07-29T11:47:50;24.10;99.90
4556;DHT22;2290;48.674;9.018;2023-07-29T11:50:15;24.20;99.90
4556;DHT22;2290;48.674;9.018;2023-07-29T11:52:43;24.20;99.90
4556;DHT22;2290;48.674;9.018;2023-07-29T11:55:09;24.10;99.90
4556;DHT22;2290;48.674;9.018;2023-07-29T11:57:36;24.10;99.90
4556;DHT22;2290;48.674;9.018;2023-07-29T12:00:07;24.10;99.90
4556;DHT22;2290;48.674;9.018;2023-07-29T12:02:37;24.10;99.90
4556;DHT22;2290;48.674;9.018;2023-07-29T12:05:04;24.10;99.90
4556;DHT22;2290;48.674;9.018;2023-07-29T12:07:30;24.10;99.90
4556;DHT22;2290;48.674;9.018;2023-07-29T12:09:56;24.10;99.90
4556;DHT22;2290;48.674;9.018;2023-07-29T12:12:23;24.30;99.90
4556;DHT22;2290;48.674;9.018;2023-07-29T12:14:49;24.30;99.90
4556;DHT22;2290;48.674;9.018;2023-07-29T12:17:15;24.50;99.90
4556;DHT22;2290;48.674;9.018;2023-07-29T12:19:42;24.50;99.90
4556;DHT22;2290;48.674;9.018;2023-07-29T12:22:09;24.40;99.90
4556;DHT22;2290;48.674;9.018;2023-07-29T12:24:37;24.30;99.90
4556;DHT22;2290;48.674;9.018;2023-07-29T12:27:04;24.40;99.90
4556;DHT22;2290;48.674;9.018;2023-07-29T12:29:31;24.80;99.90
4556;DHT22;2290;48.674;9.018;2023-07-29T12:32:01;25.00;99.90
4556;DHT22;2290;48.674;9.018;2023-07-29T12:34:28;25.10;99.90
4556;DHT22;2290;48.674;9.018;2023-07-29T12:36:54;25.30;99.90
4556;DHT22;2290;48.674;9.018;2023-07-29T12:39:32;25.40;99.90
4556;DHT22;2290;48.674;9.018;2023-07-29T12:42:00;25.40;99.90
4556;DHT22;2290;48.674;9.018;2023-07-29T12:44:29;25.30;99.90
4556;DHT22;2290;48.674;9.018;2023-07-29T12:46:55;25.20;99.90
4556;DHT22;2290;48.674;9.018;2023-07-29T12:49:20;25.30;99.90
4556;DHT22;2290;48.674;9.018;2023-07-29T12:51:46;25.40;99.90
4556;DHT22;2290;48.674;9.018;2023-07-29T12:54:11;25.50;99.90
4556;DHT22;2290;48.674;9.018;2023-07-29T12:56:37;25.30;99.90
4556;DHT22;2290;48.674;9.018;2023-07-29T12:59:03;25.40;99.90
4556;DHT22;2290;48.674;9.018;2023-07-29T13:01:29;25.50;99.90
4556;DHT22;2290;48.674;9.018;2023-07-29T13:03:54;25.30;99.90
4556;DHT22;2290;48.674;9.018;2023-07-29T13:06:21;25.20;99.90
4556;DHT22;2290;48.674;9.018;2023-07-29T13:08:47;25.20;99.90
4556;DHT22;2290;48.674;9.018;2023-07-29T13:11:13;25.10;99.90
4556;DHT22;2290;48.674;9.018;2023-07-29T13:13:39;25.00;99.90
4556;DHT22;2290;48.674;9.018;2023-07-29T13:16:04;25.10;99.90
4556;DHT22;2290;48.674;9.018;2023-07-29T13:18:31;25.40;99.90
4556;DHT22;2290;48.674;9.018;2023-07-29T13:20:57;25.30;99.90
4556;DHT22;2290;48.674;9.018;2023-07-29T13:23:22;25.30;99.90
4556;DHT22;2290;48.674;9.018;2023-07-29T13:25:48;25.10;99.90
4556;DHT22;2290;48.674;9.018;2023-07-29T13:28:14;24.90;99.90
4556;DHT22;2290;48.674;9.018;2023-07-29T13:30:40;24.90;99.90
4556;DHT22;2290;48.674;9.018;2023-07-29T13:33:06;25.00;99.90
4556;DHT22;2290;48.674;9.018;2023-07-29T13:35:32;24.90;99.90
4556;DHT22;2290;48.674;9.018;2023-07-29T13:37:57;24.90;99.90
4556;DHT22;2290;48.674;9.018;2023-07-29T13:40:24;25.00;99.90
4556;DHT22;2290;48.674;9.018;2023-07-29T13:42:50;25.00;99.90
4556;DHT22;2290;48.674;9.018;2023-07-29T13:45:15;25.10;99.90
4556;DHT22;2290;48.674;9.018;2023-07-29T13:47:41;25.30;99.90
4556;DHT22;2290;48.674;9.018;2023-07-29T13:50:07;25.30;99.90
4556;DHT22;2290;48.674;9.018;2023-07-29T13:52:36;25.30;99.90
4556;DHT22;2290;48.674;9.018;2023-07-29T13:55:05;25.00;99.90
4556;DHT22;2290;48.674;9.018;2023-07-29T13:57:31;24.90;99.90
4556;DHT22;2290;48.674;9.018;2023-07-29T13:59:58;24.90;99.90
4556;DHT22;2290;48.674;9.018;2023-07-29T14:02:25;25.00;99.90
4556;DHT22;2290;48.674;9.018;2023-07-29T14:04:56;24.90;99.90
4556;DHT22;2290;48.674;9.018;2023-07-29T14:07:22;24.80;99.90
4556;DHT22;2290;48.674;9.018;2023-07-29T14:09:47;24.80;99.90
4556;DHT22;2290;48.674;9.018;2023-07-29T14:12:13;24.70;99.90
4556;DHT22;2290;48.674;9.018;2023-07-29T14:14:41;24.60;99.90
4556;DHT22;2290;48.674;9.018;2023-07-29T14:17:07;24.50;99.90
4556;DHT22;2290;48.674;9.018;2023-07-29T14:19:34;24.60;99.90
4556;DHT22;2290;48.674;9.018;2023-07-29T14:22:00;24.80;99.90
4556;DHT22;2290;48.674;9.018;2023-07-29T14:24:25;24.90;99.90
4556;DHT22;2290;48.674;9.018;2023-07-29T14:26:51;25.20;99.90
4556;DHT22;2290;48.674;9.018;2023-07-29T14:29:17;25.40;99.90
4556;DHT22;2290;48.674;9.018;2023-07-29T14:31:42;25.50;99.90
4556;DHT22;2290;48.674;9.018;2023-07-29T14:34:09;25.50;99.90
4556;DHT22;2290;48.674;9.018;2023-07-29T14:36:34;25.40;99.90
4556;DHT22;2290;48.674;9.018;2023-07-29T14:39:00;25.30;99.90
4556;DHT22;2290;48.674;9.018;2023-07-29T14:41:25;25.30;99.90
4556;DHT22;2290;48.674;9.018;2023-07-29T14:43:51;25.00;99.90
4556;DHT22;2290;48.674;9.018;2023-07-29T14:46:17;24.80;99.90
4556;DHT22;2290;48.674;9.018;2023-07-29T14:48:42;24.70;99.90
4556;DHT22;2290;48.674;9.018;2023-07-29T14:51:08;24.70;99.90
4556;DHT22;2290;48.674;9.018;2023-07-29T14:53:34;24.80;99.90
4556;DHT22;2290;48.674;9.018;2023-07-29T14:55:59;24.80;99.90
4556;DHT22;2290;48.674;9.018;2023-07-29T14:58:25;24.80;99.90
4556;DHT22;2290;48.674;9.018;2023-07-29T15:00:51;24.80;99.90
4556;DHT22;2290;48.674;9.018;2023-07-29T15:03:17;24.70;99.90
4556;DHT22;2290;48.674;9.018;2023-07-29T15:05:43;24.70;99.90
4556;DHT22;2290;48.674;9.018;2023-07-29T15:08:09;24.60;99.90
4556;DHT22;2290;48.674;9.018;2023-07-29T15:10:34;24.50;99.90
4556;DHT22;2290;48.674;9.018;2023-07-29T15:13:00;24.50;99.90
4556;DHT22;2290;48.674;9.018;2023-07-29T15:15:25;24.50;99.90
4556;DHT22;2290;48.674;9.018;2023-07-29T15:17:51;24.50;99.90
4556;DHT22;2290;48.674;9.018;2023-07-29T15:20:17;24.50;99.90
4556;DHT22;2290;48.674;9.018;2023-07-29T15:22:43;24.40;99.90
4556;DHT22;2290;48.674;9.018;2023-07-29T15:25:10;24.40;99.90
4556;DHT22;2290;48.674;9.018;2023-07-29T15:27:35;24.50;99.90
4556;DHT22;2290;48.674;9.018;2023-07-29T15:30:01;24.50;99.90
4556;DHT22;2290;48.674;9.018;2023-07-29T15:32:27;24.60;99.90
4556;DHT22;2290;48.674;9.018;2023-07-29T15:34:54;24.90;99.90
4556;DHT22;2290;48.674;9.018;2023-07-29T15:37:20;25.00;99.90
4556;DHT22;2290;48.674;9.018;2023-07-29T15:39:45;25.10;99.90
4556;DHT22;2290;48.674;9.018;2023-07-29T15:42:11;25.30;99.90
4556;DHT22;2290;48.674;9.018;2023-07-29T15:44:36;25.50;99.90
4556;DHT22;2290;48.674;9.018;2023-07-29T15:47:03;25.70;99.90
4556;DHT22;2290;48.674;9.018;2023-07-29T15:49:28;25.80;99.90
4556;DHT22;2290;48.674;9.018;2023-07-29T15:51:54;25.40;99.90
4556;DHT22;2290;48.674;9.018;2023-07-29T15:54:19;25.30;99.90
4556;DHT22;2290;48.674;9.018;2023-07-29T15:56:45;25.30;99.90
4556;DHT22;2290;48.674;9.018;2023-07-29T15:59:12;25.40;99.90
4556;DHT22;2290;48.674;9.018;2023-07-29T16:01:39;25.70;99.90
4556;DHT22;2290;48.674;9.018;2023-07-29T16:04:04;25.60;99.90
4556;DHT22;2290;48.674;9.018;2023-07-29T16:06:30;25.60;99.90